Aspen Park, Colorado
Current Conditions -  °F | °C
As of 10:53 AM on Thursday 30 Oct 2014 (Local Time) from KAPA Reporting Station
Few Clouds Few Clouds  
Wind Chill: 11°   Ceiling: Unl
Heat Index: 11°   Visibility: 10mi
Dew Point: -4°   Wind: 6mph
Humidity: 35%   Direction: NA
Pressure: 30.4"   Gusts: NA
Location:  39.4975°N, 105.289°W
Report Text: KAPA 301653Z VRB05KT 10SM FEW140 11/M04 A3040 RMK AO2 SLP279 T01111039
Loading
Personal Weather Stations






























Interactive Weather Map
Tropical Storm Tracking
New forecast layout! Learn more

10-Day Weather Forecast

Advertisements
Track Severe Weather on mobile